createdAt,value
2018-03-24T00:00:35.452Z,4.90
2018-03-24T00:03:03.658Z,4.88
2018-03-24T00:05:31.202Z,4.68
2018-03-24T00:08:00.282Z,4.65
2018-03-24T00:10:28.082Z,4.52
2018-03-24T00:12:55.860Z,4.68
2018-03-24T00:15:23.522Z,4.58
2018-03-24T00:17:51.048Z,4.78
2018-03-24T00:20:18.741Z,4.72
2018-03-24T00:22:46.511Z,4.69
2018-03-24T00:25:14.100Z,4.66
2018-03-24T00:27:41.832Z,4.69
2018-03-24T00:30:09.524Z,4.80
2018-03-24T00:32:37.039Z,4.60
2018-03-24T00:35:04.649Z,4.59
2018-03-24T00:37:32.442Z,4.61
2018-03-24T00:40:01.365Z,4.32
2018-03-24T00:42:29.912Z,4.54
2018-03-24T00:44:58.579Z,4.45
2018-03-24T00:47:27.300Z,4.46
2018-03-24T00:49:54.891Z,4.25
2018-03-24T00:52:23.236Z,4.33
2018-03-24T00:54:51.022Z,4.26
2018-03-24T00:57:18.836Z,4.02
2018-03-24T00:59:46.368Z,4.12
2018-03-24T01:02:14.031Z,4.02
2018-03-24T01:04:41.547Z,3.89
2018-03-24T01:07:09.148Z,3.58
2018-03-24T01:09:36.812Z,3.83
2018-03-24T01:12:04.770Z,3.92
2018-03-24T01:14:32.388Z,4.02
2018-03-24T01:17:00.023Z,3.93
2018-03-24T01:19:27.976Z,4.03
2018-03-24T01:21:55.556Z,3.84
2018-03-24T01:24:23.075Z,3.88
2018-03-24T01:26:50.623Z,3.99
2018-03-24T01:29:18.135Z,3.66
2018-03-24T01:31:45.680Z,3.80
2018-03-24T01:34:13.204Z,3.64
2018-03-24T01:36:40.771Z,3.97
2018-03-24T01:39:08.288Z,4.05
2018-03-24T01:41:35.844Z,3.84
2018-03-24T01:44:03.372Z,3.90
2018-03-24T01:46:30.919Z,3.96
2018-03-24T01:48:58.444Z,3.95
2018-03-24T01:51:25.994Z,4.02
2018-03-24T01:53:53.534Z,3.53
2018-03-24T01:56:21.106Z,3.69
2018-03-24T01:58:48.625Z,3.58
2018-03-24T02:01:16.173Z,3.82
2018-03-24T02:03:44.524Z,3.88
2018-03-24T02:06:12.066Z,3.80
2018-03-24T02:08:39.620Z,3.76
2018-03-24T02:11:07.147Z,3.74
2018-03-24T02:13:35.041Z,3.99
2018-03-24T02:16:02.555Z,3.96
2018-03-24T02:18:30.103Z,3.91
2018-03-24T02:21:03.284Z,3.84
2018-03-24T02:23:30.939Z,3.64
2018-03-24T02:25:58.453Z,3.43
2018-03-24T02:28:26.004Z,3.54
2018-03-24T02:30:53.525Z,3.76
2018-03-24T02:33:21.081Z,3.67
2018-03-24T02:35:48.614Z,3.77
2018-03-24T02:38:16.164Z,3.66
2018-03-24T02:40:43.694Z,3.69
2018-03-24T02:43:11.262Z,3.74
2018-03-24T02:45:38.808Z,3.65
2018-03-24T02:48:06.381Z,3.22
2018-03-24T02:50:33.909Z,3.25
2018-03-24T02:53:01.547Z,2.94
2018-03-24T02:55:29.088Z,3.19
2018-03-24T02:57:56.643Z,3.31
2018-03-24T03:00:24.164Z,3.32
2018-03-24T03:02:51.720Z,3.37
2018-03-24T03:05:19.243Z,3.33
2018-03-24T03:07:46.902Z,3.31
2018-03-24T03:10:14.431Z,3.29
2018-03-24T03:12:41.996Z,3.18
2018-03-24T03:15:09.580Z,3.22
2018-03-24T03:17:37.136Z,2.96
2018-03-24T03:20:05.248Z,3.15
2018-03-24T03:22:32.808Z,3.14
2018-03-24T03:25:00.348Z,3.13
2018-03-24T03:27:27.897Z,3.22
2018-03-24T03:29:55.445Z,3.19
2018-03-24T03:32:23.319Z,3.03
2018-03-24T03:34:50.854Z,2.75
2018-03-24T03:37:18.379Z,2.95
2018-03-24T03:39:45.941Z,2.98
2018-03-24T03:42:13.466Z,2.87
2018-03-24T03:44:41.035Z,2.83
2018-03-24T03:47:08.560Z,2.89
2018-03-24T03:49:36.147Z,2.77
2018-03-24T03:52:03.786Z,2.75
2018-03-24T03:54:31.345Z,2.65
2018-03-24T03:56:58.865Z,2.65
2018-03-24T03:59:26.451Z,2.57
2018-03-24T04:01:53.975Z,2.52
2018-03-24T04:04:21.521Z,2.46
2018-03-24T04:06:49.051Z,2.54
2018-03-24T04:09:16.622Z,2.54
2018-03-24T04:11:44.143Z,2.56
2018-03-24T04:14:11.710Z,2.49
2018-03-24T04:16:39.236Z,2.53
2018-03-24T04:19:06.791Z,2.42
2018-03-24T04:21:35.368Z,2.21
2018-03-24T04:24:02.932Z,2.31
2018-03-24T04:26:30.556Z,2.31
2018-03-24T04:28:58.052Z,2.06
2018-03-24T04:31:25.572Z,1.92
2018-03-24T04:33:53.119Z,2.19
2018-03-24T04:36:20.634Z,2.35
2018-03-24T04:38:48.185Z,2.22
2018-03-24T04:41:15.737Z,2.10
2018-03-24T04:43:43.293Z,1.98
2018-03-24T04:46:10.827Z,2.03
2018-03-24T04:48:38.391Z,1.95
2018-03-24T04:51:05.922Z,2.23
2018-03-24T04:53:33.488Z,2.34
2018-03-24T04:56:01.029Z,2.25
2018-03-24T04:58:28.601Z,2.15
2018-03-24T05:00:56.123Z,2.00
2018-03-24T05:03:23.678Z,2.23
2018-03-24T05:05:51.214Z,1.95
2018-03-24T05:08:18.766Z,2.08
2018-03-24T05:10:46.332Z,2.14
2018-03-24T05:13:13.848Z,2.25
2018-03-24T05:15:41.439Z,2.27
2018-03-24T05:18:08.960Z,2.18
2018-03-24T05:20:36.519Z,2.22
2018-03-24T05:23:04.039Z,2.20
2018-03-24T05:25:31.591Z,2.17
2018-03-24T05:27:59.102Z,1.82
2018-03-24T05:30:26.668Z,1.73
2018-03-24T05:32:54.205Z,1.77
2018-03-24T05:35:21.759Z,1.89
2018-03-24T05:37:49.284Z,1.85
2018-03-24T05:40:16.859Z,1.81
2018-03-24T05:42:44.374Z,1.88
2018-03-24T05:45:11.944Z,2.00
2018-03-24T05:47:39.468Z,2.12
2018-03-24T05:50:07.025Z,2.15
2018-03-24T05:52:34.538Z,2.12
2018-03-24T05:55:02.099Z,2.10
2018-03-24T05:57:29.627Z,2.13
2018-03-24T05:59:57.179Z,2.16
2018-03-24T06:02:24.711Z,2.15
2018-03-24T06:04:52.269Z,1.99
2018-03-24T06:07:19.791Z,1.96
2018-03-24T06:09:47.352Z,1.86
2018-03-24T06:12:14.869Z,1.85
2018-03-24T06:14:42.443Z,1.88
2018-03-24T06:17:09.980Z,2.00
2018-03-24T06:19:37.531Z,2.12
2018-03-24T06:22:06.031Z,2.10
2018-03-24T06:24:33.594Z,2.01
2018-03-24T06:27:01.136Z,2.06
2018-03-24T06:29:28.699Z,2.09
2018-03-24T06:31:58.569Z,1.99
2018-03-24T06:34:26.137Z,2.11
2018-03-24T06:36:59.119Z,2.27
2018-03-24T06:39:26.689Z,2.27
2018-03-24T06:41:54.207Z,2.37
2018-03-24T06:44:21.779Z,2.40
2018-03-24T06:46:49.303Z,2.53
2018-03-24T06:49:16.860Z,2.55
2018-03-24T06:51:44.411Z,2.64
2018-03-24T06:54:11.980Z,2.70
2018-03-24T06:56:39.536Z,2.80
2018-03-24T06:59:07.067Z,2.85
2018-03-24T07:01:34.658Z,2.88
2018-03-24T07:04:02.183Z,2.91
2018-03-24T07:06:29.735Z,3.08
2018-03-24T07:08:57.308Z,3.27
2018-03-24T07:11:24.863Z,3.36
2018-03-24T07:13:52.402Z,3.50
2018-03-24T07:16:19.988Z,3.45
2018-03-24T07:18:47.625Z,3.53
2018-03-24T07:21:19.367Z,3.53
2018-03-24T07:23:47.710Z,3.71
2018-03-24T07:26:15.343Z,3.93
2018-03-24T07:28:45.066Z,4.04
2018-03-24T07:31:12.720Z,4.13
2018-03-24T07:33:40.240Z,4.22
2018-03-24T07:36:07.820Z,4.28
2018-03-24T07:38:36.171Z,4.13
2018-03-24T07:41:03.724Z,4.42
2018-03-24T07:43:31.259Z,4.44
2018-03-24T07:46:01.684Z,4.35
2018-03-24T07:48:30.968Z,4.44
2018-03-24T07:50:58.517Z,4.56
2018-03-24T07:53:26.089Z,4.71
2018-03-24T07:55:54.132Z,4.61
2018-03-24T07:58:21.706Z,4.74
2018-03-24T08:00:49.613Z,4.89
2018-03-24T08:03:17.192Z,5.01
2018-03-24T08:05:44.715Z,4.88
2018-03-24T08:08:13.117Z,4.96
2018-03-24T08:10:49.295Z,5.00
2018-03-24T08:13:17.673Z,5.25
2018-03-24T08:15:45.203Z,5.40
2018-03-24T08:18:12.784Z,5.29
2018-03-24T08:20:40.295Z,5.37
2018-03-24T08:23:07.841Z,5.66
2018-03-24T08:25:36.330Z,5.78
2018-03-24T08:28:03.879Z,5.85
2018-03-24T08:30:31.394Z,5.89
2018-03-24T08:32:58.964Z,5.88
2018-03-24T08:35:26.499Z,5.96
2018-03-24T08:37:54.044Z,6.08
2018-03-24T08:40:21.578Z,6.03
2018-03-24T08:42:49.135Z,6.09
2018-03-24T08:45:17.663Z,6.23
2018-03-24T08:47:45.223Z,6.30
2018-03-24T08:50:12.757Z,6.36
2018-03-24T08:52:41.347Z,6.48
2018-03-24T08:55:08.993Z,6.56
2018-03-24T08:57:36.563Z,6.64
2018-03-24T09:00:04.104Z,6.69
2018-03-24T09:02:31.675Z,6.65
2018-03-24T09:04:59.223Z,6.61
2018-03-24T09:07:26.801Z,6.68
2018-03-24T09:09:54.328Z,6.68
2018-03-24T09:12:21.877Z,6.73
2018-03-24T09:14:52.911Z,6.83
2018-03-24T09:17:20.718Z,6.83
2018-03-24T09:19:48.986Z,6.94
2018-03-24T09:22:16.569Z,6.87
2018-03-24T09:24:44.077Z,6.97
2018-03-24T09:27:12.395Z,7.13
2018-03-24T09:29:40.159Z,7.09
2018-03-24T09:32:07.716Z,7.13
2018-03-24T09:34:35.922Z,7.19
2018-03-24T09:37:06.132Z,7.26
2018-03-24T09:39:44.704Z,7.57
2018-03-24T09:42:15.779Z,7.63
2018-03-24T09:44:54.060Z,7.58
2018-03-24T09:47:21.872Z,7.74
2018-03-24T09:49:49.416Z,7.80
2018-03-24T09:52:17.066Z,7.91
2018-03-24T09:54:44.603Z,8.04
2018-03-24T09:57:12.184Z,8.23
2018-03-24T09:59:39.720Z,8.38
2018-03-24T10:02:07.268Z,8.53
2018-03-24T10:04:34.791Z,8.44
2018-03-24T10:07:02.351Z,8.57
2018-03-24T10:09:29.878Z,8.70
2018-03-24T10:11:57.437Z,8.82
2018-03-24T10:14:24.992Z,8.74
2018-03-24T10:16:52.520Z,8.73
2018-03-24T10:19:20.091Z,8.76
2018-03-24T10:24:46.466Z,8.64
2018-03-24T10:27:14.308Z,8.65
2018-03-24T10:29:41.854Z,8.62
2018-03-24T10:32:09.401Z,8.60
2018-03-24T10:34:37.246Z,8.74
2018-03-24T10:37:04.845Z,8.60
2018-03-24T10:39:32.415Z,8.70
2018-03-24T10:41:59.939Z,8.71
2018-03-24T10:44:27.486Z,8.99
2018-03-24T10:46:55.028Z,9.37
2018-03-24T10:49:22.674Z,9.37
2018-03-24T10:51:50.216Z,9.20
2018-03-24T10:54:17.778Z,9.79
2018-03-24T10:56:45.311Z,9.85
2018-03-24T10:59:12.874Z,9.85
2018-03-24T11:01:40.442Z,10.02
2018-03-24T11:04:08.016Z,9.71
2018-03-24T11:06:35.547Z,9.68
2018-03-24T11:09:03.100Z,9.61
2018-03-24T11:11:30.624Z,9.52
2018-03-24T11:13:58.184Z,9.55
2018-03-24T11:16:25.903Z,9.44
2018-03-24T11:18:54.065Z,9.52
2018-03-24T11:21:22.066Z,9.51
2018-03-24T11:23:51.517Z,9.61
2018-03-24T11:26:19.080Z,9.84
2018-03-24T11:28:46.677Z,9.89
2018-03-24T11:31:14.214Z,10.12
2018-03-24T11:33:41.788Z,10.24
2018-03-24T11:36:09.320Z,10.08
2018-03-24T11:38:37.083Z,10.02
2018-03-24T11:41:04.619Z,10.04
2018-03-24T11:43:32.143Z,10.12
2018-03-24T11:45:59.697Z,10.27
2018-03-24T11:48:27.221Z,10.36
2018-03-24T11:50:57.290Z,10.45
2018-03-24T11:53:36.865Z,10.40
2018-03-24T11:56:08.072Z,10.54
2018-03-24T11:58:35.763Z,10.57
2018-03-24T12:01:03.316Z,10.86
2018-03-24T12:03:30.852Z,11.16
2018-03-24T12:05:58.535Z,11.44
2018-03-24T12:08:26.056Z,11.57
2018-03-24T12:10:53.622Z,11.30
2018-03-24T12:13:21.151Z,11.40
2018-03-24T12:15:48.713Z,11.58
2018-03-24T12:18:16.405Z,11.51
2018-03-24T12:20:44.245Z,11.40
2018-03-24T12:23:13.470Z,11.46
2018-03-24T12:25:41.388Z,11.50
2018-03-24T12:28:09.461Z,11.83
2018-03-24T12:30:37.762Z,11.78
2018-03-24T12:33:05.822Z,11.86
2018-03-24T12:35:34.490Z,11.94
2018-03-24T12:38:02.470Z,11.81
2018-03-24T12:40:31.291Z,11.80
2018-03-24T12:43:02.156Z,11.97
2018-03-24T12:45:29.735Z,11.88
2018-03-24T12:47:57.497Z,11.81
2018-03-24T12:50:25.057Z,12.00
2018-03-24T12:52:52.615Z,12.03
2018-03-24T12:55:20.331Z,12.07
2018-03-24T12:57:47.868Z,12.11
2018-03-24T13:00:15.435Z,12.02
2018-03-24T13:02:43.076Z,12.08
2018-03-24T13:05:10.695Z,12.11
2018-03-24T13:07:38.248Z,12.03
2018-03-24T13:10:05.962Z,12.22
2018-03-24T13:12:33.556Z,12.24
2018-03-24T13:15:01.127Z,12.29
2018-03-24T13:17:28.729Z,12.57
2018-03-24T13:19:56.276Z,12.24
2018-03-24T13:22:23.829Z,12.37
2018-03-24T13:24:51.403Z,12.59
2018-03-24T13:27:18.963Z,12.65
2018-03-24T13:29:46.991Z,12.86
2018-03-24T13:32:14.603Z,12.62
2018-03-24T13:34:42.527Z,12.59
2018-03-24T13:37:13.495Z,12.65
2018-03-24T13:39:41.257Z,12.84
2018-03-24T13:42:08.824Z,12.85
2018-03-24T13:44:36.351Z,12.87
2018-03-24T13:47:03.913Z,12.85
2018-03-24T13:49:32.098Z,12.90
2018-03-24T13:51:59.789Z,12.81
2018-03-24T13:54:27.315Z,12.93
2018-03-24T13:56:55.413Z,12.98
2018-03-24T13:59:23.323Z,12.94
2018-03-24T14:01:50.945Z,12.94
2018-03-24T14:04:18.471Z,12.97
2018-03-24T14:06:46.054Z,13.00
2018-03-24T14:09:15.452Z,13.30
2018-03-24T14:11:43.167Z,13.29
2018-03-24T14:14:12.335Z,13.22
2018-03-24T14:16:39.925Z,13.40
2018-03-24T14:19:07.851Z,13.19
2018-03-24T14:21:36.006Z,13.33
2018-03-24T14:24:03.627Z,13.38
2018-03-24T14:26:31.183Z,13.44
2018-03-24T14:28:58.726Z,13.65
2018-03-24T14:31:31.066Z,13.63
2018-03-24T14:33:58.668Z,13.65
2018-03-24T14:36:26.313Z,13.57
2018-03-24T14:38:55.317Z,13.73
2018-03-24T14:41:22.963Z,13.67
2018-03-24T14:43:50.564Z,13.83
2018-03-24T14:46:18.135Z,13.90
2018-03-24T14:48:45.707Z,13.75
2018-03-24T14:51:13.426Z,13.72
2018-03-24T14:53:40.974Z,13.89
2018-03-24T14:56:08.528Z,14.13
2018-03-24T14:58:36.051Z,14.20
2018-03-24T15:01:03.616Z,14.31
2018-03-24T15:03:31.160Z,14.16
2018-03-24T15:05:58.757Z,14.52
2018-03-24T15:08:26.311Z,14.64
2018-03-24T15:10:54.011Z,14.64
2018-03-24T15:13:21.545Z,14.65
2018-03-24T15:15:49.115Z,15.06
2018-03-24T15:18:16.938Z,15.14
2018-03-24T15:20:44.523Z,15.13
2018-03-24T15:23:12.195Z,15.03
2018-03-24T15:25:39.879Z,15.69
2018-03-24T15:28:07.499Z,15.93
2018-03-24T15:30:46.881Z,15.79
2018-03-24T15:33:26.125Z,15.78
2018-03-24T15:36:05.752Z,16.14
2018-03-24T15:38:33.267Z,15.65
2018-03-24T15:41:00.841Z,15.36
2018-03-24T15:43:28.407Z,15.87
2018-03-24T15:45:56.023Z,16.23
2018-03-24T15:48:23.577Z,16.18
2018-03-24T15:50:51.588Z,16.14
2018-03-24T15:53:19.304Z,16.44
2018-03-24T15:55:46.863Z,16.78
2018-03-24T15:58:14.428Z,16.63
2018-03-24T16:00:41.960Z,16.01
2018-03-24T16:03:09.937Z,16.54
2018-03-24T16:05:37.515Z,16.12
2018-03-24T16:08:05.331Z,16.46
2018-03-24T16:10:32.888Z,16.25
2018-03-24T16:13:00.471Z,16.29
2018-03-24T16:15:27.988Z,15.91
2018-03-24T16:17:57.348Z,16.11
2018-03-24T16:20:25.582Z,15.35
2018-03-24T16:22:53.148Z,15.72
2018-03-24T16:25:20.898Z,15.93
2018-03-24T16:27:48.463Z,14.94
2018-03-24T16:30:15.985Z,14.72
2018-03-24T16:32:43.692Z,14.81
2018-03-24T16:35:11.216Z,14.51
2018-03-24T16:37:38.770Z,14.99
2018-03-24T16:40:06.313Z,14.55
2018-03-24T16:42:33.891Z,14.81
2018-03-24T16:45:01.423Z,14.70
2018-03-24T16:47:28.976Z,13.85
2018-03-24T16:49:56.504Z,14.37
2018-03-24T16:52:24.083Z,13.99
2018-03-24T16:54:51.610Z,13.48
2018-03-24T16:57:19.134Z,13.96
2018-03-24T16:59:46.716Z,13.72
2018-03-24T17:02:15.164Z,13.83
2018-03-24T17:04:42.728Z,13.55
2018-03-24T17:07:10.272Z,13.59
2018-03-24T17:09:37.836Z,12.90
2018-03-24T17:12:05.371Z,13.23
2018-03-24T17:14:32.932Z,12.74
2018-03-24T17:17:00.448Z,12.35
2018-03-24T17:19:28.032Z,12.36
2018-03-24T17:21:55.555Z,12.50
2018-03-24T17:24:23.133Z,12.15
2018-03-24T17:26:53.001Z,12.22
2018-03-24T17:29:23.136Z,12.33
2018-03-24T17:31:52.070Z,11.91
2018-03-24T17:34:21.239Z,11.42
2018-03-24T17:36:49.796Z,11.57
2018-03-24T17:39:17.360Z,11.85
2018-03-24T17:41:47.380Z,11.70
2018-03-24T17:44:15.968Z,11.50
2018-03-24T17:46:46.180Z,11.36
2018-03-24T17:49:15.760Z,11.08
2018-03-24T17:51:43.284Z,11.19
2018-03-24T17:54:13.482Z,11.02
2018-03-24T17:56:41.779Z,11.02
2018-03-24T17:59:10.665Z,10.98
2018-03-24T18:01:40.620Z,10.87
2018-03-24T18:04:08.287Z,10.89
2018-03-24T18:06:39.994Z,10.89
2018-03-24T18:09:08.076Z,10.55
2018-03-24T18:11:35.631Z,10.63
2018-03-24T18:14:07.548Z,10.56
2018-03-24T18:16:38.582Z,10.49
2018-03-24T18:19:11.922Z,10.50
2018-03-24T18:21:42.341Z,10.50
2018-03-24T18:24:10.557Z,10.31
2018-03-24T18:26:42.662Z,10.36
2018-03-24T18:29:11.038Z,10.15
2018-03-24T18:31:40.412Z,10.13
2018-03-24T18:34:11.141Z,10.03
2018-03-24T18:36:39.376Z,9.96
2018-03-24T18:39:11.615Z,9.94
2018-03-24T18:41:41.706Z,9.93
2018-03-24T18:44:10.047Z,9.72
2018-03-24T18:46:38.627Z,9.73
2018-03-24T18:49:06.192Z,9.55
2018-03-24T18:51:36.951Z,9.61
2018-03-24T18:54:07.971Z,9.60
2018-03-24T18:56:35.719Z,9.53
2018-03-24T18:59:07.178Z,9.36
2018-03-24T19:01:35.427Z,9.17
2018-03-24T19:04:05.975Z,9.13
2018-03-24T19:06:34.342Z,9.21
2018-03-24T19:09:03.706Z,9.17
2018-03-24T19:11:32.445Z,9.04
2018-03-24T19:14:01.594Z,8.95
2018-03-24T19:16:29.206Z,8.89
2018-03-24T19:19:00.671Z,8.82
2018-03-24T19:21:31.199Z,8.69
2018-03-24T19:24:01.064Z,8.77
2018-03-24T19:26:31.797Z,8.71
2018-03-24T19:28:59.597Z,8.45
2018-03-24T19:31:28.953Z,8.38
2018-03-24T19:34:02.165Z,8.20
2018-03-24T19:36:30.927Z,8.28
2018-03-24T19:38:59.557Z,8.17
2018-03-24T19:41:27.102Z,8.18
2018-03-24T19:43:54.639Z,7.93
2018-03-24T19:46:24.362Z,8.11
2018-03-24T19:48:51.893Z,8.12
2018-03-24T19:51:19.444Z,8.03
2018-03-24T19:53:46.964Z,7.90
2018-03-24T19:56:14.535Z,7.80
2018-03-24T19:58:42.051Z,7.67
2018-03-24T20:01:09.609Z,7.65
2018-03-24T20:03:37.370Z,7.37
2018-03-24T20:06:06.204Z,7.34
2018-03-24T20:08:33.737Z,7.35
2018-03-24T20:11:01.448Z,7.30
2018-03-24T20:13:29.362Z,7.38
2018-03-24T20:15:57.152Z,7.34
2018-03-24T20:18:25.722Z,7.38
2018-03-24T20:20:53.435Z,7.34
2018-03-24T20:23:22.716Z,7.09
2018-03-24T20:25:50.275Z,7.09
2018-03-24T20:28:17.792Z,6.81
2018-03-24T20:30:45.352Z,6.36
2018-03-24T20:33:12.904Z,6.43
2018-03-24T20:35:40.451Z,6.44
2018-03-24T20:38:11.276Z,6.48
2018-03-24T20:40:39.016Z,6.46
2018-03-24T20:43:06.565Z,6.44
2018-03-24T20:45:34.170Z,6.51
2018-03-24T20:48:04.437Z,6.26
2018-03-24T20:50:32.197Z,6.31
2018-03-24T20:52:59.733Z,6.33
2018-03-24T20:55:27.399Z,6.24
2018-03-24T20:57:57.282Z,6.18
2018-03-24T21:00:25.079Z,6.26
2018-03-24T21:02:52.611Z,6.24
2018-03-24T21:05:20.186Z,6.14
2018-03-24T21:07:47.763Z,5.95
2018-03-24T21:10:31.004Z,6.08
2018-03-24T21:13:01.268Z,6.04
2018-03-24T21:15:30.862Z,6.02
2018-03-24T21:18:13.778Z,6.03
2018-03-24T21:20:41.333Z,5.87
2018-03-24T21:23:08.901Z,5.80
2018-03-24T21:25:36.449Z,5.87
2018-03-24T21:28:03.985Z,5.82
2018-03-24T21:30:31.559Z,5.81
2018-03-24T21:32:59.283Z,5.66
2018-03-24T21:35:26.842Z,5.60
2018-03-24T21:37:54.408Z,5.22
2018-03-24T21:40:21.964Z,5.25
2018-03-24T21:42:49.499Z,5.38
2018-03-24T21:45:17.192Z,5.50
2018-03-24T21:47:44.759Z,5.53
2018-03-24T21:50:12.347Z,5.46
2018-03-24T21:52:40.067Z,5.34
2018-03-24T21:55:07.906Z,5.27
2018-03-24T21:57:36.103Z,5.31
2018-03-24T22:00:03.688Z,5.25
2018-03-24T22:02:31.251Z,5.26
2018-03-24T22:04:59.797Z,5.17
2018-03-24T22:07:27.352Z,5.11
2018-03-24T22:09:55.230Z,5.04
2018-03-24T22:12:24.632Z,4.89
2018-03-24T22:14:52.803Z,4.92
2018-03-24T22:17:22.531Z,4.90
2018-03-24T22:19:51.702Z,4.63
2018-03-24T22:22:19.582Z,4.70
2018-03-24T22:24:47.106Z,4.70
2018-03-24T22:27:14.965Z,4.63
2018-03-24T22:29:42.486Z,4.65
2018-03-24T22:32:10.037Z,4.61
2018-03-24T22:34:37.571Z,4.50
2018-03-24T22:37:07.905Z,4.44
2018-03-24T22:39:38.591Z,4.42
2018-03-24T22:42:07.149Z,4.53
2018-03-24T22:44:35.409Z,4.44
2018-03-24T22:47:03.169Z,4.40
2018-03-24T22:49:30.956Z,4.44
2018-03-24T22:51:59.334Z,4.32
2018-03-24T22:54:27.933Z,4.34
2018-03-24T22:56:55.743Z,4.38
2018-03-24T22:59:23.480Z,4.23
2018-03-24T23:01:51.048Z,4.18
2018-03-24T23:04:18.628Z,4.16
2018-03-24T23:06:46.446Z,4.23
2018-03-24T23:09:14.767Z,4.14
2018-03-24T23:11:42.324Z,4.11
2018-03-24T23:14:10.029Z,3.98
2018-03-24T23:16:38.416Z,4.04
2018-03-24T23:19:05.938Z,4.06
2018-03-24T23:21:33.690Z,4.08
2018-03-24T23:24:01.778Z,4.00
2018-03-24T23:26:29.412Z,4.06
2018-03-24T23:28:57.084Z,3.95
2018-03-24T23:31:24.673Z,3.81
2018-03-24T23:33:52.279Z,3.85
2018-03-24T23:36:20.798Z,3.85
2018-03-24T23:38:48.520Z,3.80
2018-03-24T23:41:16.358Z,3.84
2018-03-24T23:43:43.921Z,3.68
2018-03-24T23:46:12.864Z,3.71
2018-03-24T23:48:40.963Z,3.73
2018-03-24T23:51:09.915Z,3.68
2018-03-24T23:53:38.395Z,3.65
2018-03-24T23:56:07.024Z,3.63
2018-03-24T23:58:35.512Z,3.57
